Time;durP1;ratioP1;P1;durP2;ratioP2;P2;SDS_P1;SDS_P2;PMS_P1;PMS_P2;Temp;Humidity;BMP_temperature;BMP_pressure;BME280_temperature;BME280_humidity;BME280_pressure;Samples;Min_cycle;Max_cycle;Signal;HPM_P1;HPM_P2
2023/12/04 00:00:37;;;;;;;14.73;9.60;;;1.60;99.90;;;;;;4993477;28;20259;-72
2023/12/04 00:03:03;;;;;;;16.93;9.87;;;1.60;99.90;;;;;;4993694;28;20665;-73
2023/12/04 00:05:29;;;;;;;16.33;9.37;;;1.70;99.90;;;;;;4993480;28;20446;-73
2023/12/04 00:07:54;;;;;;;13.97;10.13;;;1.80;99.90;;;;;;4993134;28;20550;-73
2023/12/04 00:10:20;;;;;;;14.70;9.70;;;1.70;99.90;;;;;;4994691;28;20208;-72
2023/12/04 00:12:46;;;;;;;12.67;8.90;;;1.70;99.90;;;;;;4994570;28;20540;-72
2023/12/04 00:15:12;;;;;;;13.63;9.73;;;1.80;99.90;;;;;;4994839;28;20419;-74
2023/12/04 00:17:39;;;;;;;15.17;9.87;;;1.80;99.90;;;;;;4993550;28;20192;-73
2023/12/04 00:20:09;;;;;;;16.03;9.30;;;1.90;99.90;;;;;;4994356;28;20194;-74
2023/12/04 00:22:34;;;;;;;14.00;9.70;;;1.80;99.90;;;;;;4995342;28;20444;-72
2023/12/04 00:25:00;;;;;;;13.80;9.77;;;1.80;99.90;;;;;;4994108;28;20431;-72
2023/12/04 00:27:27;;;;;;;15.70;9.63;;;1.80;99.90;;;;;;4996980;28;21162;-74
2023/12/04 00:29:53;;;;;;;14.27;9.77;;;1.90;99.90;;;;;;4996850;28;20237;-73
2023/12/04 00:32:19;;;;;;;14.50;8.70;;;1.80;99.90;;;;;;4998850;28;20534;-71
2023/12/04 00:34:44;;;;;;;13.03;9.07;;;1.90;99.90;;;;;;4996886;28;20422;-73
2023/12/04 00:37:10;;;;;;;12.40;8.70;;;1.90;99.90;;;;;;4997604;28;20191;-72
2023/12/04 00:39:36;;;;;;;15.90;9.73;;;1.90;99.90;;;;;;4999205;28;20256;-74
2023/12/04 00:42:01;;;;;;;12.20;8.33;;;1.90;99.90;;;;;;4997277;28;20192;-74
2023/12/04 00:44:27;;;;;;;12.67;8.70;;;2.00;99.90;;;;;;4999412;28;20192;-74
2023/12/04 00:46:53;;;;;;;16.00;9.87;;;2.00;99.90;;;;;;4996930;28;20217;-73
2023/12/04 00:49:19;;;;;;;16.83;9.90;;;2.00;99.90;;;;;;4998509;28;20314;-71
2023/12/04 00:51:44;;;;;;;12.43;8.07;;;2.00;99.90;;;;;;4997916;28;20236;-73
2023/12/04 00:54:11;;;;;;;13.90;10.10;;;2.00;99.90;;;;;;4997785;28;21035;-72
2023/12/04 00:56:39;;;;;;;13.80;8.37;;;1.90;99.90;;;;;;4998787;28;20179;-72
2023/12/04 00:59:06;;;;;;;11.30;8.40;;;1.90;99.90;;;;;;4998031;28;20495;-71
2023/12/04 01:01:32;;;;;;;11.73;8.73;;;1.90;99.90;;;;;;4999386;28;20419;-72
2023/12/04 01:03:59;;;;;;;11.17;7.97;;;1.90;99.90;;;;;;4997002;28;20439;-71
2023/12/04 01:06:25;;;;;;;11.40;8.67;;;2.00;99.90;;;;;;4998969;28;20500;-72
2023/12/04 01:08:52;;;;;;;12.40;7.97;;;2.00;99.90;;;;;;4997868;28;20475;-73
2023/12/04 01:11:19;;;;;;;11.40;8.30;;;2.00;99.90;;;;;;4999213;28;20798;-74
2023/12/04 01:13:45;;;;;;;9.60;7.17;;;2.00;99.90;;;;;;4997405;28;20434;-72
2023/12/04 01:16:11;;;;;;;10.83;7.90;;;2.00;99.90;;;;;;4997702;28;20430;-73
2023/12/04 01:18:36;;;;;;;12.27;8.13;;;2.00;99.90;;;;;;4999185;28;20419;-72
2023/12/04 01:21:02;;;;;;;12.90;7.40;;;2.00;99.90;;;;;;4997865;28;20572;-73
2023/12/04 01:23:28;;;;;;;12.60;8.30;;;2.00;99.90;;;;;;4998164;28;20191;-74
2023/12/04 01:25:53;;;;;;;13.17;8.13;;;2.00;99.90;;;;;;4997033;28;20663;-72
2023/12/04 01:28:19;;;;;;;11.37;8.00;;;2.00;99.90;;;;;;4999863;28;20190;-73
2023/12/04 01:30:45;;;;;;;13.10;8.23;;;2.00;99.90;;;;;;4997465;28;20183;-74
2023/12/04 01:33:10;;;;;;;13.90;8.40;;;2.00;99.90;;;;;;4998194;28;20191;-71
2023/12/04 01:35:36;;;;;;;12.87;8.30;;;2.10;99.90;;;;;;4999139;28;20187;-72
2023/12/04 01:38:02;;;;;;;12.43;8.30;;;2.00;99.90;;;;;;4997920;28;20312;-72
2023/12/04 01:40:27;;;;;;;10.50;7.23;;;2.00;99.90;;;;;;4999646;28;21125;-74
2023/12/04 01:42:53;;;;;;;12.63;8.57;;;2.00;99.90;;;;;;4997871;28;20282;-72
2023/12/04 01:45:19;;;;;;;11.17;7.40;;;2.00;99.90;;;;;;5000935;28;20966;-72
2023/12/04 01:47:45;;;;;;;9.90;7.57;;;2.00;99.90;;;;;;4997238;28;20195;-72
2023/12/04 01:50:13;;;;;;;10.37;7.80;;;2.00;99.90;;;;;;4997818;28;20218;-73
2023/12/04 01:52:40;;;;;;;10.37;7.97;;;2.00;99.90;;;;;;4998586;28;20431;-73
2023/12/04 01:55:07;;;;;;;9.20;7.33;;;2.00;99.90;;;;;;4997066;28;20416;-72
2023/12/04 01:57:34;;;;;;;13.23;7.70;;;2.10;99.90;;;;;;4998791;28;20691;-71
2023/12/04 02:00:00;;;;;;;11.73;7.87;;;2.00;99.90;;;;;;4996714;28;20439;-74
2023/12/04 02:02:26;;;;;;;10.50;8.07;;;2.00;99.90;;;;;;4998524;28;20431;-73
2023/12/04 02:04:55;;;;;;;12.53;7.87;;;2.00;99.90;;;;;;4996362;28;20450;-72
2023/12/04 02:07:21;;;;;;;9.90;7.77;;;2.00;99.90;;;;;;4999028;28;20521;-73
2023/12/04 02:09:47;;;;;;;10.03;6.63;;;2.00;99.90;;;;;;4997666;28;20466;-71
2023/12/04 02:12:12;;;;;;;11.30;7.87;;;2.00;99.90;;;;;;4997494;28;20184;-73
2023/12/04 02:14:38;;;;;;;10.73;8.20;;;2.00;99.90;;;;;;4998530;28;20680;-71
2023/12/04 02:17:07;;;;;;;11.93;7.47;;;2.10;99.90;;;;;;4997653;28;20199;-71
2023/12/04 02:19:33;;;;;;;11.13;8.40;;;2.00;99.90;;;;;;5000032;28;20736;-71
2023/12/04 02:21:58;;;;;;;9.30;6.93;;;2.00;99.90;;;;;;4997658;28;20434;-72
2023/12/04 02:24:25;;;;;;;10.90;7.00;;;2.10;99.90;;;;;;4998754;28;20568;-74
2023/12/04 02:27:08;;;;;;;9.40;7.60;;;2.10;99.90;;;;;;4997502;28;20176;-75
2023/12/04 02:29:41;;;;;;;10.73;7.70;;;2.10;99.90;;;;;;5001138;28;20545;-74
2023/12/04 02:32:11;;;;;;;10.37;7.80;;;2.10;99.90;;;;;;4996653;28;20940;-73
2023/12/04 02:34:39;;;;;;;10.63;7.20;;;2.10;99.90;;;;;;4997196;28;20430;-72
2023/12/04 02:37:06;;;;;;;10.80;7.70;;;2.20;99.90;;;;;;4996814;28;20426;-71
2023/12/04 02:39:32;;;;;;;12.60;8.10;;;2.20;99.90;;;;;;5000070;28;20457;-74
2023/12/04 02:41:58;;;;;;;10.57;7.70;;;2.20;99.90;;;;;;4997873;28;20461;-73
2023/12/04 02:44:23;;;;;;;9.47;7.17;;;2.20;99.90;;;;;;4999290;28;20759;-71
2023/12/04 02:46:49;;;;;;;8.50;6.50;;;2.20;99.90;;;;;;4997631;28;20180;-73
2023/12/04 02:49:15;;;;;;;10.17;7.03;;;2.10;99.90;;;;;;4998400;28;20294;-73
2023/12/04 02:51:41;;;;;;;11.60;7.20;;;2.10;99.90;;;;;;4997722;28;20309;-73
2023/12/04 02:54:07;;;;;;;11.23;6.67;;;2.10;99.90;;;;;;4997526;28;20770;-75
2023/12/04 02:56:33;;;;;;;9.83;6.40;;;2.10;99.90;;;;;;5000027;28;20430;-72
2023/12/04 02:58:58;;;;;;;7.50;6.00;;;2.10;99.90;;;;;;4997860;28;20644;-73
2023/12/04 03:01:24;;;;;;;9.67;7.43;;;2.10;99.90;;;;;;4999876;28;20651;-72
2023/12/04 03:03:50;;;;;;;9.50;6.70;;;2.10;99.90;;;;;;5011791;28;20625;-73
2023/12/04 03:06:18;;;;;;;9.20;6.13;;;2.10;99.90;;;;;;4999150;28;20820;-71
2023/12/04 03:08:44;;;;;;;9.63;6.67;;;2.10;99.90;;;;;;4997484;28;20211;-73
2023/12/04 03:11:10;;;;;;;10.53;7.10;;;2.10;99.90;;;;;;4996071;28;20909;-73
2023/12/04 03:13:35;;;;;;;8.80;6.57;;;2.10;99.90;;;;;;4997520;28;20703;-73
2023/12/04 03:16:01;;;;;;;10.53;7.00;;;2.00;99.90;;;;;;4997430;28;20184;-75
2023/12/04 03:18:28;;;;;;;9.57;6.87;;;2.00;99.90;;;;;;4998703;28;20642;-74
2023/12/04 03:20:54;;;;;;;12.17;7.70;;;2.00;99.90;;;;;;4998093;28;20227;-74
2023/12/04 03:23:20;;;;;;;9.63;7.00;;;2.10;99.90;;;;;;4999036;28;20426;-74
2023/12/04 03:25:46;;;;;;;8.93;6.53;;;2.00;99.90;;;;;;4997391;28;20465;-72
2023/12/04 03:28:13;;;;;;;8.93;6.70;;;2.10;99.90;;;;;;4999329;28;20183;-72
2023/12/04 03:30:38;;;;;;;11.23;6.80;;;2.10;99.90;;;;;;4998298;28;20206;-72
2023/12/04 03:33:04;;;;;;;9.60;6.13;;;2.10;99.90;;;;;;4997291;28;20458;-73
2023/12/04 03:35:30;;;;;;;8.53;6.00;;;2.10;99.90;;;;;;4999514;28;20267;-72
2023/12/04 03:37:55;;;;;;;8.50;5.90;;;2.10;99.90;;;;;;4997861;28;20191;-73
2023/12/04 03:40:21;;;;;;;7.90;5.60;;;2.10;99.90;;;;;;4999924;28;20694;-72
2023/12/04 03:42:47;;;;;;;8.03;5.70;;;2.10;99.90;;;;;;4981011;28;20213;-73
2023/12/04 03:45:12;;;;;;;7.53;5.30;;;2.10;99.90;;;;;;4998357;28;20347;-73
2023/12/04 03:47:38;;;;;;;9.10;6.30;;;2.10;99.90;;;;;;4998391;28;20282;-73
2023/12/04 03:50:05;;;;;;;7.73;5.60;;;2.10;99.90;;;;;;4997167;28;20239;-74
2023/12/04 03:52:30;;;;;;;9.80;5.90;;;2.20;99.90;;;;;;4999711;28;20196;-72
2023/12/04 03:54:56;;;;;;;7.00;5.53;;;2.20;99.90;;;;;;4997750;28;21028;-74
2023/12/04 03:57:21;;;;;;;6.17;5.30;;;2.20;99.90;;;;;;4993323;28;20240;-72
2023/12/04 03:59:47;;;;;;;7.87;5.53;;;2.20;99.90;;;;;;4990997;28;20186;-72
2023/12/04 04:02:13;;;;;;;6.93;5.20;;;2.20;99.90;;;;;;4992267;28;20194;-72
2023/12/04 04:04:38;;;;;;;8.30;5.83;;;2.30;99.90;;;;;;4993960;28;20190;-74
2023/12/04 04:07:04;;;;;;;8.20;6.00;;;2.20;99.90;;;;;;4993557;28;20247;-71
2023/12/04 04:09:30;;;;;;;9.37;5.67;;;2.30;99.90;;;;;;4993750;28;20230;-73
2023/12/04 04:11:55;;;;;;;9.03;5.70;;;2.20;99.90;;;;;;5008976;28;20196;-74
2023/12/04 04:14:21;;;;;;;6.83;5.40;;;2.20;99.90;;;;;;4992559;28;20242;-75
2023/12/04 04:16:47;;;;;;;7.57;6.30;;;2.30;99.90;;;;;;4994867;28;20180;-74
2023/12/04 04:19:12;;;;;;;8.23;5.57;;;2.30;99.90;;;;;;4993541;28;20198;-73
2023/12/04 04:21:41;;;;;;;8.53;5.30;;;2.30;99.90;;;;;;4994254;28;20215;-71
2023/12/04 04:24:07;;;;;;;8.80;5.20;;;2.30;99.90;;;;;;4993725;28;20188;-74
2023/12/04 04:26:32;;;;;;;7.67;5.23;;;2.30;99.90;;;;;;4994070;28;20470;-71
2023/12/04 04:28:58;;;;;;;7.40;5.63;;;2.30;99.90;;;;;;4996247;28;20774;-72
2023/12/04 04:31:24;;;;;;;8.17;5.20;;;2.30;99.90;;;;;;4994717;28;20791;-72
2023/12/04 04:33:50;;;;;;;9.47;6.10;;;2.30;99.90;;;;;;4994754;28;20454;-71
2023/12/04 04:36:16;;;;;;;7.97;5.40;;;2.30;99.90;;;;;;4993428;28;20411;-72
2023/12/04 04:38:41;;;;;;;7.63;5.10;;;2.30;99.90;;;;;;4994356;28;20197;-74
2023/12/04 04:41:07;;;;;;;7.80;5.47;;;2.30;99.90;;;;;;4993867;28;20187;-73
2023/12/04 04:43:33;;;;;;;7.03;5.03;;;2.30;99.90;;;;;;4994270;28;20554;-74
2023/12/04 04:45:59;;;;;;;6.70;5.30;;;2.40;99.90;;;;;;4993452;28;20219;-71
2023/12/04 04:48:24;;;;;;;6.60;4.90;;;2.30;99.90;;;;;;4994349;28;20429;-72
2023/12/04 04:50:50;;;;;;;7.20;5.43;;;2.30;99.90;;;;;;4994157;28;20252;-71
2023/12/04 04:53:15;;;;;;;7.53;5.60;;;2.30;99.90;;;;;;4991443;28;20182;-74
2023/12/04 04:55:41;;;;;;;7.00;5.33;;;2.30;99.90;;;;;;4988539;28;20275;-73
2023/12/04 04:58:07;;;;;;;7.40;5.43;;;2.30;99.90;;;;;;4991639;28;20278;-73
2023/12/04 05:00:32;;;;;;;5.57;4.53;;;2.30;99.90;;;;;;4991627;28;20842;-73
2023/12/04 05:02:58;;;;;;;8.90;5.20;;;2.30;99.90;;;;;;4989330;28;20672;-71
2023/12/04 05:05:24;;;;;;;8.80;6.10;;;2.30;99.90;;;;;;4991333;28;20274;-72
2023/12/04 05:07:49;;;;;;;8.17;5.40;;;2.30;99.90;;;;;;4993192;28;20672;-72
2023/12/04 05:10:15;;;;;;;8.10;5.87;;;2.30;99.90;;;;;;4994248;28;20215;-72
2023/12/04 05:12:41;;;;;;;8.53;5.60;;;2.30;99.90;;;;;;4991567;28;20569;-71
2023/12/04 05:15:06;;;;;;;9.07;5.60;;;2.30;99.90;;;;;;4992457;28;20195;-74
2023/12/04 05:17:32;;;;;;;10.50;5.90;;;2.30;99.90;;;;;;4994235;28;20250;-74
2023/12/04 05:19:58;;;;;;;8.23;5.60;;;2.30;99.90;;;;;;4993539;28;20474;-75
2023/12/04 05:22:24;;;;;;;8.43;5.80;;;2.30;99.90;;;;;;4994269;28;20191;-72
2023/12/04 05:24:50;;;;;;;8.57;5.63;;;2.30;99.90;;;;;;4993706;28;20430;-73
2023/12/04 05:27:15;;;;;;;8.50;5.47;;;2.30;99.90;;;;;;4994753;28;20194;-71
2023/12/04 05:29:41;;;;;;;7.87;5.90;;;2.30;99.90;;;;;;4995425;28;20214;-71
2023/12/04 05:32:07;;;;;;;8.97;6.03;;;2.30;99.90;;;;;;4993713;28;20308;-71
2023/12/04 05:34:32;;;;;;;9.00;6.10;;;2.30;99.90;;;;;;4995215;28;20178;-71
2023/12/04 05:36:58;;;;;;;6.63;5.17;;;2.30;99.90;;;;;;4994055;28;20188;-72
2023/12/04 05:39:23;;;;;;;7.07;5.40;;;2.40;99.90;;;;;;4994224;28;20187;-72
2023/12/04 05:41:49;;;;;;;7.70;5.63;;;2.40;99.90;;;;;;4993966;28;20609;-71
2023/12/04 05:44:15;;;;;;;8.40;5.80;;;2.40;99.90;;;;;;4993706;28;20895;-72
2023/12/04 05:46:40;;;;;;;7.30;5.50;;;2.40;99.90;;;;;;4994178;28;20620;-71
2023/12/04 05:49:06;;;;;;;7.87;5.77;;;2.30;99.90;;;;;;4994019;28;20251;-72
2023/12/04 05:51:32;;;;;;;7.90;6.00;;;2.40;99.90;;;;;;4994087;28;20300;-71
2023/12/04 05:53:58;;;;;;;7.53;5.90;;;2.40;99.90;;;;;;4993983;28;20248;-74
2023/12/04 05:56:23;;;;;;;6.77;5.37;;;2.40;99.90;;;;;;4995005;28;20414;-73
2023/12/04 05:58:49;;;;;;;7.80;5.73;;;2.40;99.90;;;;;;4993094;28;20184;-73
2023/12/04 06:01:15;;;;;;;8.90;5.87;;;2.40;99.90;;;;;;4993945;28;20612;-73
2023/12/04 06:03:41;;;;;;;7.57;5.23;;;2.40;99.90;;;;;;4994335;28;20188;-72
2023/12/04 06:06:07;;;;;;;6.53;5.33;;;2.40;99.90;;;;;;4993126;28;20431;-71
2023/12/04 06:08:33;;;;;;;8.70;5.47;;;2.40;99.90;;;;;;4993772;28;20415;-71
2023/12/04 06:10:58;;;;;;;6.40;4.80;;;2.50;99.90;;;;;;4994021;28;20437;-73
2023/12/04 06:13:24;;;;;;;7.23;5.00;;;2.50;99.90;;;;;;4995391;28;20180;-73
2023/12/04 06:15:49;;;;;;;6.67;5.33;;;2.50;99.90;;;;;;4990767;28;20187;-72
2023/12/04 06:18:15;;;;;;;8.77;5.83;;;2.50;99.90;;;;;;4991010;28;20182;-71
2023/12/04 06:20:41;;;;;;;6.73;5.17;;;2.50;99.90;;;;;;4991310;28;20225;-73
2023/12/04 06:23:07;;;;;;;6.30;5.57;;;2.50;99.90;;;;;;4989937;28;20290;-72
2023/12/04 06:25:32;;;;;;;8.70;5.57;;;2.50;99.90;;;;;;4990600;28;20577;-72
2023/12/04 06:27:59;;;;;;;12.23;5.77;;;2.50;99.90;;;;;;4994596;28;20614;-71
2023/12/04 06:30:25;;;;;;;8.20;6.37;;;2.60;99.90;;;;;;4995435;28;20465;-71
2023/12/04 06:32:51;;;;;;;8.17;6.13;;;2.50;99.90;;;;;;4992244;28;20438;-72
2023/12/04 06:35:17;;;;;;;7.37;5.37;;;2.50;99.90;;;;;;4995847;28;20418;-72
2023/12/04 06:37:45;;;;;;;12.00;5.77;;;2.50;99.90;;;;;;4993921;28;20485;-73
2023/12/04 06:40:11;;;;;;;8.57;5.50;;;2.40;99.90;;;;;;4992892;28;20431;-74
2023/12/04 06:42:37;;;;;;;7.93;5.30;;;2.40;99.90;;;;;;4988082;28;20410;-71
2023/12/04 06:45:04;;;;;;;8.90;5.77;;;2.40;99.90;;;;;;4987808;28;20441;-72
2023/12/04 06:47:31;;;;;;;6.70;5.80;;;2.40;99.90;;;;;;4992444;28;20791;-72
2023/12/04 06:49:57;;;;;;;6.70;5.60;;;2.40;99.90;;;;;;4994231;28;20583;-73
2023/12/04 06:52:22;;;;;;;9.93;6.07;;;2.30;99.90;;;;;;4994649;28;20458;-73
2023/12/04 06:54:48;;;;;;;8.13;6.50;;;2.30;99.90;;;;;;4994348;28;20190;-71
2023/12/04 06:57:14;;;;;;;8.77;5.77;;;2.30;99.90;;;;;;4989343;28;20195;-71
2023/12/04 06:59:42;;;;;;;10.33;5.80;;;2.30;99.90;;;;;;4989206;28;20913;-72
2023/12/04 07:02:07;;;;;;;7.50;5.70;;;2.30;99.90;;;;;;4990724;28;20871;-73
2023/12/04 07:04:33;;;;;;;8.60;5.83;;;2.30;99.90;;;;;;4987720;28;20442;-71
2023/12/04 07:07:04;;;;;;;6.80;5.63;;;2.30;99.90;;;;;;4989340;28;20191;-73
2023/12/04 07:09:31;;;;;;;5.63;4.87;;;2.20;99.90;;;;;;4989570;28;21121;-73
2023/12/04 07:11:56;;;;;;;8.50;5.70;;;2.30;99.90;;;;;;4987833;28;20478;-73
2023/12/04 07:14:22;;;;;;;6.67;4.90;;;2.30;99.90;;;;;;4989727;28;20450;-71
2023/12/04 07:16:48;;;;;;;8.83;5.63;;;2.30;99.90;;;;;;4988854;28;20183;-71
2023/12/04 07:19:15;;;;;;;8.57;5.30;;;2.30;99.90;;;;;;4986232;28;20279;-72
2023/12/04 07:21:41;;;;;;;7.80;5.57;;;2.30;99.90;;;;;;4988139;28;20273;-71
2023/12/04 07:24:08;;;;;;;8.07;5.63;;;2.30;99.90;;;;;;4989097;28;21791;-70
2023/12/04 07:26:34;;;;;;;6.77;5.33;;;2.30;99.90;;;;;;4992389;28;21023;-71
2023/12/04 07:29:01;;;;;;;7.03;5.90;;;2.30;99.90;;;;;;4995674;28;20475;-70
2023/12/04 07:31:26;;;;;;;6.40;5.10;;;2.30;99.90;;;;;;4993878;28;20943;-70
2023/12/04 07:33:55;;;;;;;6.40;5.13;;;2.30;99.90;;;;;;4990329;28;20461;-70
2023/12/04 07:36:21;;;;;;;8.23;6.37;;;2.30;99.90;;;;;;4993285;28;20179;-70
2023/12/04 07:38:47;;;;;;;6.87;4.93;;;2.30;99.90;;;;;;4993687;28;20425;-71
2023/12/04 07:41:13;;;;;;;7.33;4.97;;;2.30;99.90;;;;;;4993248;28;20430;-71
2023/12/04 07:43:39;;;;;;;6.50;4.90;;;2.30;99.90;;;;;;4993569;28;20631;-71
2023/12/04 07:46:05;;;;;;;6.50;4.53;;;2.30;99.90;;;;;;4992006;28;20430;-70
2023/12/04 07:48:31;;;;;;;6.07;5.03;;;2.20;99.90;;;;;;4993786;28;20427;-71
2023/12/04 07:50:57;;;;;;;6.60;4.87;;;2.30;99.90;;;;;;4991165;28;20869;-71
2023/12/04 07:53:22;;;;;;;6.30;5.30;;;2.30;99.90;;;;;;4995758;28;20278;-70
2023/12/04 07:55:50;;;;;;;6.00;4.67;;;2.30;99.90;;;;;;4992997;28;20653;-70
2023/12/04 07:58:17;;;;;;;6.70;5.27;;;2.30;99.90;;;;;;4994767;28;20198;-70
2023/12/04 08:00:44;;;;;;;7.47;5.30;;;2.30;99.90;;;;;;4992545;28;20438;-71
2023/12/04 08:03:09;;;;;;;7.10;4.90;;;2.30;99.90;;;;;;4991961;28;20423;-70
2023/12/04 08:05:35;;;;;;;7.83;5.57;;;2.30;99.90;;;;;;4994014;28;20430;-70
2023/12/04 08:08:01;;;;;;;8.30;5.60;;;2.30;99.90;;;;;;4994506;28;20196;-71
2023/12/04 08:10:26;;;;;;;6.03;5.37;;;2.30;99.90;;;;;;4996235;28;20240;-71
2023/12/04 08:12:52;;;;;;;5.93;5.10;;;2.30;99.90;;;;;;4991549;28;20188;-71
2023/12/04 08:15:18;;;;;;;6.60;5.90;;;2.30;99.90;;;;;;4996701;28;20401;-72
2023/12/04 08:17:43;;;;;;;5.90;4.97;;;2.40;99.90;;;;;;4992774;28;20201;-71
2023/12/04 08:20:13;;;;;;;7.87;5.63;;;2.30;99.90;;;;;;4994857;28;20192;-71
2023/12/04 08:22:41;;;;;;;8.03;5.80;;;2.40;99.90;;;;;;4993469;28;20184;-71
2023/12/04 08:25:07;;;;;;;6.33;5.10;;;2.40;99.90;;;;;;4994376;28;20470;-71
2023/12/04 08:27:33;;;;;;;6.63;4.53;;;2.40;99.90;;;;;;4995221;28;20423;-71
2023/12/04 08:29:59;;;;;;;6.67;5.30;;;2.40;99.90;;;;;;4991566;28;20478;-71
2023/12/04 08:32:26;;;;;;;6.97;5.00;;;2.50;99.90;;;;;;4994990;28;20548;-71
2023/12/04 08:34:52;;;;;;;7.20;4.77;;;2.50;99.90;;;;;;4993468;28;20196;-70
2023/12/04 08:37:20;;;;;;;5.37;4.67;;;2.50;99.90;;;;;;4995690;28;20558;-71
2023/12/04 08:39:45;;;;;;;7.30;4.33;;;2.50;99.90;;;;;;4993533;28;20214;-72
2023/12/04 08:42:12;;;;;;;6.00;4.60;;;2.50;99.90;;;;;;4993755;28;20497;-71
2023/12/04 08:44:38;;;;;;;5.53;4.60;;;2.50;99.90;;;;;;4994830;28;20192;-72
2023/12/04 08:47:04;;;;;;;5.83;5.00;;;2.50;99.90;;;;;;4991400;28;20437;-71
2023/12/04 08:49:30;;;;;;;6.53;5.13;;;2.60;99.90;;;;;;4999857;28;20584;-71
2023/12/04 08:51:56;;;;;;;6.40;4.47;;;2.60;99.90;;;;;;4996917;28;20429;-71
2023/12/04 08:54:21;;;;;;;7.37;4.50;;;2.70;99.90;;;;;;5000019;28;20268;-72
2023/12/04 08:56:47;;;;;;;6.80;4.97;;;2.60;99.90;;;;;;4994777;28;20194;-70
2023/12/04 08:59:13;;;;;;;5.50;4.27;;;2.70;99.90;;;;;;4999891;28;20184;-71
2023/12/04 09:01:39;;;;;;;6.13;4.83;;;2.70;99.80;;;;;;4995313;28;20240;-72
2023/12/04 09:04:05;;;;;;;5.00;4.17;;;2.70;99.90;;;;;;4997554;28;20278;-71
2023/12/04 09:06:30;;;;;;;5.43;4.07;;;2.80;99.50;;;;;;5000300;28;20583;-71
2023/12/04 09:08:56;;;;;;;5.50;4.50;;;2.80;99.40;;;;;;4997401;28;20470;-72
2023/12/04 09:11:22;;;;;;;6.27;4.50;;;2.80;99.70;;;;;;5000251;28;20207;-71
2023/12/04 09:13:47;;;;;;;5.53;4.10;;;2.90;99.90;;;;;;4997293;28;20218;-70
2023/12/04 09:16:13;;;;;;;4.40;3.23;;;2.90;99.80;;;;;;4999736;28;20199;-69
2023/12/04 09:18:39;;;;;;;6.77;4.10;;;2.90;99.00;;;;;;4996754;28;20227;-71
2023/12/04 09:21:05;;;;;;;7.33;4.80;;;2.90;98.80;;;;;;4995686;28;20433;-71
2023/12/04 09:23:31;;;;;;;6.27;4.47;;;2.90;98.90;;;;;;5000343;28;20426;-72
2023/12/04 09:25:57;;;;;;;5.27;3.80;;;2.90;99.00;;;;;;4997536;28;20895;-72
2023/12/04 09:28:23;;;;;;;5.13;4.60;;;3.00;98.80;;;;;;4998389;28;20989;-71
2023/12/04 09:30:48;;;;;;;4.47;3.43;;;3.00;99.20;;;;;;4996364;28;20215;-71
2023/12/04 09:33:14;;;;;;;5.80;4.47;;;3.00;98.40;;;;;;5000031;28;20281;-71
2023/12/04 09:35:40;;;;;;;6.53;4.10;;;3.10;98.60;;;;;;4997191;28;20561;-71
2023/12/04 09:38:05;;;;;;;5.47;4.33;;;3.10;98.80;;;;;;4998093;28;20259;-71
2023/12/04 09:40:31;;;;;;;5.10;3.90;;;3.10;99.20;;;;;;5000624;28;20561;-72
2023/12/04 09:42:57;;;;;;;5.43;4.60;;;3.20;99.30;;;;;;4997817;28;20179;-71
2023/12/04 09:45:25;;;;;;;7.23;4.50;;;3.20;99.20;;;;;;5000357;28;20427;-71
2023/12/04 09:47:51;;;;;;;5.73;4.03;;;3.20;99.60;;;;;;5091406;27;21065;-71
2023/12/04 09:50:20;;;;;;;5.17;3.87;;;3.20;99.90;;;;;;4998388;28;20474;-71
2023/12/04 09:52:51;;;;;;;5.10;4.47;;;3.20;99.90;;;;;;4996963;28;20422;-71
2023/12/04 09:55:17;;;;;;;5.40;4.00;;;3.20;99.90;;;;;;5000530;28;20509;-71
2023/12/04 09:57:46;;;;;;;4.87;3.90;;;3.20;99.90;;;;;;4996828;28;20518;-71
2023/12/04 10:00:14;;;;;;;5.57;3.70;;;3.20;99.90;;;;;;4997972;28;20437;-71
2023/12/04 10:02:40;;;;;;;5.13;3.73;;;3.30;99.90;;;;;;4997511;28;20442;-72
2023/12/04 10:05:07;;;;;;;5.80;3.80;;;3.20;99.90;;;;;;4997311;28;20483;-72
2023/12/04 10:07:33;;;;;;;5.03;4.27;;;3.30;99.90;;;;;;4997731;28;20479;-71
2023/12/04 10:09:59;;;;;;;5.50;3.90;;;3.30;99.90;;;;;;4997719;28;20470;-71
2023/12/04 10:12:25;;;;;;;4.93;3.50;;;3.30;99.90;;;;;;5094201;27;20563;-71
2023/12/04 10:15:07;;;;;;;4.57;3.63;;;3.40;99.90;;;;;;4997367;28;20221;-71
2023/12/04 10:17:39;;;;;;;4.83;3.50;;;3.40;99.90;;;;;;4997074;28;20441;-72
2023/12/04 10:20:17;;;;;;;5.10;3.70;;;3.40;99.90;;;;;;4997057;28;20790;-71
2023/12/04 10:22:56;;;;;;;5.00;3.50;;;3.40;99.90;;;;;;4996660;28;20430;-70
2023/12/04 10:25:24;;;;;;;6.30;3.90;;;3.40;99.90;;;;;;5000379;28;20471;-72
2023/12/04 10:27:50;;;;;;;5.23;3.93;;;3.40;99.90;;;;;;4996789;28;20483;-71
2023/12/04 10:30:30;;;;;;;5.03;3.80;;;3.40;99.90;;;;;;5002041;28;21023;-71
2023/12/04 10:33:05;;;;;;;4.17;3.37;;;3.50;99.80;;;;;;4995904;28;20583;-70
2023/12/04 10:35:36;;;;;;;6.20;4.70;;;3.40;99.90;;;;;;4998066;28;20445;-71
2023/12/04 10:38:02;;;;;;;5.73;4.53;;;3.40;99.90;;;;;;4997430;28;20514;-71
2023/12/04 10:40:33;;;;;;;6.83;4.67;;;3.40;99.70;;;;;;5000984;28;20790;-71
2023/12/04 10:43:14;;;;;;;6.50;4.43;;;3.40;99.90;;;;;;4998241;28;20438;-70
2023/12/04 10:45:41;;;;;;;6.17;4.77;;;3.40;99.90;;;;;;4996864;28;20902;-71
2023/12/04 10:48:08;;;;;;;7.37;4.63;;;3.40;99.90;;;;;;4992493;28;20549;-71
2023/12/04 10:50:35;;;;;;;5.87;4.40;;;3.40;99.90;;;;;;4988747;28;20810;-71
2023/12/04 10:53:12;;;;;;;18.43;4.73;;;3.40;99.90;;;;;;4989187;28;20912;-71
2023/12/04 10:55:39;;;;;;;5.80;4.67;;;3.40;99.90;;;;;;4988074;28;20845;-70
2023/12/04 10:58:10;;;;;;;8.73;6.27;;;3.40;99.90;;;;;;4990568;28;20948;-70
2023/12/04 11:00:39;;;;;;;6.30;4.57;;;3.30;99.90;;;;;;4989020;28;20426;-71
2023/12/04 11:03:08;;;;;;;5.80;4.90;;;3.40;99.90;;;;;;4997531;28;20419;-71
2023/12/04 11:05:39;;;;;;;7.20;5.33;;;3.30;99.90;;;;;;5000393;28;20820;-71
2023/12/04 11:08:11;;;;;;;11.50;5.77;;;3.30;99.90;;;;;;5012811;28;20538;-71
2023/12/04 11:11:04;;;;;;;6.60;5.50;;;3.30;99.90;;;;;;4990467;28;20992;-70
2023/12/04 11:13:35;;;;;;;6.87;5.10;;;3.30;99.90;;;;;;5085563;27;21017;-71
2023/12/04 11:16:06;;;;;;;7.60;5.27;;;3.30;99.90;;;;;;4990776;28;20418;-70
2023/12/04 11:18:37;;;;;;;7.33;5.10;;;3.30;99.90;;;;;;4990184;28;20442;-71
2023/12/04 11:21:12;;;;;;;7.43;5.13;;;3.30;99.90;;;;;;4988659;28;20439;-71
2023/12/04 11:23:39;;;;;;;8.87;6.20;;;3.20;99.90;;;;;;4986179;28;20446;-70
2023/12/04 11:26:05;;;;;;;9.23;5.60;;;3.30;99.90;;;;;;4988737;28;20504;-70
2023/12/04 11:28:33;;;;;;;7.83;5.40;;;3.30;99.90;;;;;;4958305;28;20824;-71
2023/12/04 11:31:01;;;;;;;9.87;6.70;;;3.20;99.90;;;;;;4991159;28;20478;-70
2023/12/04 11:33:26;;;;;;;9.43;5.93;;;3.20;99.90;;;;;;4990267;28;20507;-70
2023/12/04 11:35:52;;;;;;;7.83;6.37;;;3.30;99.90;;;;;;4990451;28;20995;-70
2023/12/04 11:38:18;;;;;;;9.80;6.83;;;3.20;99.90;;;;;;5059760;28;20764;-71
2023/12/04 11:40:46;;;;;;;8.20;6.07;;;3.20;99.90;;;;;;4990603;28;20798;-70
2023/12/04 11:43:29;;;;;;;9.10;6.07;;;3.20;99.90;;;;;;4991913;28;20971;-71
2023/12/04 11:46:08;;;;;;;9.03;5.87;;;3.20;99.90;;;;;;4991040;28;20871;-70
2023/12/04 11:48:36;;;;;;;7.93;6.03;;;3.20;99.90;;;;;;4991649;28;21019;-70
2023/12/04 11:51:01;;;;;;;6.50;5.77;;;3.20;99.90;;;;;;4990538;28;20454;-70
2023/12/04 11:53:27;;;;;;;8.67;6.10;;;3.20;99.90;;;;;;4991532;28;20426;-71
2023/12/04 11:55:57;;;;;;;10.83;7.80;;;3.20;99.90;;;;;;4991395;28;20194;-71
2023/12/04 11:58:23;;;;;;;8.73;6.40;;;3.30;99.90;;;;;;4991695;28;20195;-71
2023/12/04 12:00:48;;;;;;;10.40;6.90;;;3.30;99.90;;;;;;4990308;28;20801;-70
2023/12/04 12:03:15;;;;;;;7.83;5.67;;;3.30;99.90;;;;;;4992566;28;20267;-71
2023/12/04 12:05:41;;;;;;;8.00;6.27;;;3.30;99.90;;;;;;4990855;28;20439;-71
2023/12/04 12:08:08;;;;;;;8.73;6.10;;;3.30;99.90;;;;;;5006020;28;20983;-71
2023/12/04 12:10:34;;;;;;;9.07;6.00;;;3.30;99.90;;;;;;4991418;28;20470;-71
2023/12/04 12:13:01;;;;;;;7.67;5.90;;;3.30;99.90;;;;;;4990175;28;20450;-70
2023/12/04 12:15:27;;;;;;;9.17;6.20;;;3.40;99.90;;;;;;4991185;28;20962;-70
2023/12/04 12:17:53;;;;;;;10.20;8.80;;;3.30;99.90;;;;;;4991880;28;20443;-70
2023/12/04 12:20:22;;;;;;;10.63;7.10;;;3.30;99.90;;;;;;4991499;28;20445;-71
2023/12/04 12:22:49;;;;;;;9.80;6.20;;;3.30;99.90;;;;;;4991897;28;20522;-71
2023/12/04 12:25:15;;;;;;;10.90;7.13;;;3.20;99.90;;;;;;4995389;28;20495;-71
2023/12/04 12:27:41;;;;;;;10.80;6.90;;;3.20;99.90;;;;;;4994544;28;20430;-70
2023/12/04 12:30:07;;;;;;;10.47;7.20;;;3.20;99.90;;;;;;4996477;28;20808;-70
2023/12/04 12:32:34;;;;;;;10.40;7.67;;;3.20;99.90;;;;;;4994891;28;20571;-71
2023/12/04 12:35:00;;;;;;;10.77;7.40;;;3.20;99.90;;;;;;4994749;28;20427;-70
2023/12/04 12:37:26;;;;;;;9.40;7.00;;;3.20;99.90;;;;;;4994648;28;20430;-71
2023/12/04 12:39:52;;;;;;;9.17;6.67;;;3.10;99.90;;;;;;4994546;28;20209;-71
2023/12/04 12:42:25;;;;;;;9.00;6.13;;;3.20;99.90;;;;;;4995466;28;20437;-71
2023/12/04 12:44:52;;;;;;;8.97;7.03;;;3.10;99.90;;;;;;4992571;28;21737;-70
2023/12/04 12:47:18;;;;;;;8.80;6.50;;;3.10;99.90;;;;;;4995057;28;20471;-71
2023/12/04 12:49:44;;;;;;;8.53;7.20;;;3.10;99.90;;;;;;4993500;28;20477;-70
2023/12/04 12:52:11;;;;;;;9.47;6.57;;;3.10;99.90;;;;;;4994476;28;20453;-71